Time;durP1;ratioP1;P1;durP2;ratioP2;P2;SDS_P1;SDS_P2;PMS_P1;PMS_P2;Temp;Humidity;BMP_temperature;BMP_pressure;BME280_temperature;BME280_humidity;BME280_pressure;Samples;Min_cycle;Max_cycle;Signal;HPM_P1;HPM_P2
2022/10/02 00:02:20;;;;;;;5.50;4.10;;;;;;;10.10;100.00;98415.88;104770;1277;61565;-72
2022/10/02 00:04:56;;;;;;;3.70;3.40;;;;;;;10.07;100.00;98425.48;104347;1277;76164;-73
2022/10/02 00:07:41;;;;;;;3.70;3.30;;;;;;;10.09;100.00;98420.77;104595;1276;68961;-72
2022/10/02 00:10:21;;;;;;;6.00;3.60;;;;;;;10.13;100.00;98428.29;105036;1271;74237;-72
2022/10/02 00:12:54;;;;;;;3.90;3.40;;;;;;;10.16;100.00;98428.20;105177;1271;61236;-74
2022/10/02 00:15:30;;;;;;;5.70;3.80;;;;;;;10.19;100.00;98423.23;105107;1271;60689;-73
2022/10/02 00:18:25;;;;;;;3.00;2.80;;;;;;;10.21;100.00;98425.89;105200;1271;75608;-74
2022/10/02 00:21:21;;;;;;;3.70;3.40;;;;;;;10.24;100.00;98419.13;104806;1277;71315;-75
2022/10/02 00:23:52;;;;;;;5.40;3.70;;;;;;;10.25;100.00;98414.94;104701;1277;73161;-73
2022/10/02 00:26:24;;;;;;;3.60;3.30;;;;;;;10.26;100.00;98414.87;104791;1277;61179;-72
2022/10/02 00:29:03;;;;;;;5.20;3.60;;;;;;;10.27;100.00;98415.73;104817;1277;61069;-71
2022/10/02 00:31:40;;;;;;;3.30;3.00;;;;;;;10.27;100.00;98425.66;104794;1276;74850;-74
2022/10/02 00:34:33;;;;;;;3.40;3.00;;;;;;;10.28;100.00;98430.91;104846;1277;68564;-72
2022/10/02 00:37:34;;;;;;;3.00;2.60;;;;;;;10.31;100.00;98439.56;104847;1277;73347;-73
2022/10/02 00:40:19;;;;;;;3.20;2.90;;;;;;;10.34;100.00;98440.23;104810;1277;60748;-74
2022/10/02 00:43:09;;;;;;;3.60;3.30;;;;;;;10.38;100.00;98442.84;104690;1277;174724;-72
2022/10/02 00:45:43;;;;;;;2.90;2.70;;;;;;;10.41;100.00;98447.02;104969;1277;75209;-73
2022/10/02 00:48:21;;;;;;;3.80;2.70;;;;;;;10.43;100.00;98451.97;104827;1277;70846;-72
2022/10/02 00:51:16;;;;;;;4.20;3.10;;;;;;;10.47;100.00;98455.27;104826;1277;73886;-72
2022/10/02 00:53:55;;;;;;;3.90;2.90;;;;;;;10.49;100.00;98463.83;104619;1277;61021;-73
2022/10/02 00:56:45;;;;;;;3.90;2.80;;;;;;;10.50;100.00;98462.45;104826;1275;60911;-73
2022/10/02 00:59:14;;;;;;;4.60;3.50;;;;;;;10.51;100.00;98474.65;105251;1271;72806;-73
2022/10/02 01:01:52;;;;;;;4.70;3.60;;;;;;;10.52;100.00;98477.04;105236;1271;69239;-72
2022/10/02 01:04:34;;;;;;;5.60;5.10;;;;;;;10.53;100.00;98481.80;105170;1271;73263;-73
2022/10/02 01:07:03;;;;;;;6.00;5.10;;;;;;;10.53;100.00;98487.80;105020;1271;60530;-73
2022/10/02 01:09:30;;;;;;;5.20;4.80;;;;;;;10.54;100.00;98489.55;105265;1271;61520;-72
2022/10/02 01:11:56;;;;;;;4.60;3.70;;;;;;;10.53;100.00;98492.41;105167;1271;74627;-73
2022/10/02 01:14:36;;;;;;;4.40;4.00;;;;;;;10.53;100.00;98491.35;105233;1271;70280;-72
2022/10/02 01:17:22;;;;;;;5.10;4.00;;;;;;;10.53;100.00;98494.02;105296;1271;72125;-73
2022/10/02 01:19:50;;;;;;;4.40;3.80;;;;;;;10.54;100.00;98496.45;105116;1271;60617;-72
2022/10/02 01:22:33;;;;;;;4.10;3.70;;;;;;;10.53;100.00;98500.08;105225;1271;61784;-72
2022/10/02 01:25:03;;;;;;;5.10;4.30;;;;;;;10.52;100.00;98504.90;104878;1271;74442;-73
2022/10/02 01:27:32;;;;;;;4.40;3.30;;;;;;;10.53;100.00;98504.52;104946;1271;70563;-72
2022/10/02 01:30:11;;;;;;;5.00;3.90;;;;;;;10.52;100.00;98498.18;104945;1271;73579;-72
2022/10/02 01:32:42;;;;;;;3.90;3.60;;;;;;;10.52;100.00;98501.05;104856;1271;60514;-74
2022/10/02 01:35:09;;;;;;;4.40;3.90;;;;;;;10.51;100.00;98504.48;105532;1269;62821;-73
2022/10/02 01:37:40;;;;;;;4.70;3.60;;;;;;;10.51;100.00;98504.73;105199;1270;75309;-73
2022/10/02 01:40:18;;;;;;;6.10;4.30;;;;;;;10.50;100.00;98505.30;105209;1271;69197;-72
2022/10/02 01:42:44;;;;;;;4.50;4.10;;;;;;;10.49;100.00;98505.73;105187;1271;74437;-72
2022/10/02 01:45:11;;;;;;;5.10;4.60;;;;;;;10.48;100.00;98504.72;104889;1271;60927;-72
2022/10/02 01:48:02;;;;;;;5.60;3.80;;;;;;;10.48;100.00;98505.11;105214;1271;62071;-74
2022/10/02 01:50:43;;;;;;;4.90;4.40;;;;;;;10.48;100.00;98503.84;104928;1271;74080;-71
2022/10/02 01:53:18;;;;;;;6.30;4.80;;;;;;;10.48;100.00;98510.02;105223;1271;69125;-72
2022/10/02 01:56:17;;;;;;;5.20;4.70;;;;;;;10.48;100.00;98515.20;105193;1271;73410;-72
2022/10/02 01:58:58;;;;;;;5.70;5.20;;;;;;;10.47;100.00;98517.02;104569;1276;60579;-71
2022/10/02 02:01:24;;;;;;;5.40;4.90;;;;;;;10.48;100.00;98518.77;104573;1277;60873;-72
2022/10/02 02:04:08;;;;;;;5.50;4.80;;;;;;;10.48;100.00;98521.44;104571;1277;73884;-72
2022/10/02 02:07:12;;;;;;;5.00;4.40;;;;;;;10.48;100.00;98524.47;104586;1277;69254;-73
2022/10/02 02:09:42;;;;;;;5.40;5.00;;;;;;;10.47;100.00;98523.27;104305;1277;73971;-70
2022/10/02 02:12:18;;;;;;;6.70;6.00;;;;;;;10.47;100.00;98528.95;104595;1277;60584;-72
2022/10/02 02:14:56;;;;;;;6.60;6.00;;;;;;;10.46;100.00;98532.02;104487;1277;61373;-72
2022/10/02 02:17:29;;;;;;;6.30;5.70;;;;;;;10.47;100.00;98534.25;104544;1277;75305;-71
2022/10/02 02:20:07;;;;;;;8.60;6.10;;;;;;;10.49;100.00;98539.25;104527;1277;69481;-72
2022/10/02 02:22:43;;;;;;;7.00;6.40;;;;;;;10.51;100.00;98541.64;104567;1277;73908;-71
2022/10/02 02:25:23;;;;;;;6.80;6.20;;;;;;;10.52;100.00;98543.45;104500;1277;61084;-74
2022/10/02 02:27:54;;;;;;;7.70;6.90;;;;;;;10.54;100.00;98547.97;104560;1277;61119;-73
2022/10/02 02:30:23;;;;;;;7.10;6.40;;;;;;;10.55;100.00;98551.43;104557;1277;75091;-71
2022/10/02 02:32:55;;;;;;;7.20;6.10;;;;;;;10.57;100.00;98553.13;104530;1277;70302;-72
2022/10/02 02:35:29;;;;;;;8.50;7.70;;;;;;;10.56;100.00;98553.86;104551;1271;73224;-71
2022/10/02 02:38:04;;;;;;;8.20;6.60;;;;;;;10.54;100.00;98553.83;105179;1271;61024;-74
2022/10/02 02:40:35;;;;;;;7.20;6.50;;;;;;;10.49;100.00;98552.06;104876;1271;60473;-72
2022/10/02 02:43:09;;;;;;;9.20;7.80;;;;;;;10.44;100.00;98559.02;104889;1271;75473;-72
2022/10/02 02:45:41;;;;;;;8.50;7.70;;;;;;;10.38;100.00;98561.04;104902;1271;68310;-74
2022/10/02 02:48:25;;;;;;;8.00;7.20;;;;;;;10.34;100.00;98562.59;104933;1271;72683;-72
2022/10/02 02:50:59;;;;;;;8.00;7.20;;;;;;;10.30;100.00;98565.35;105241;1271;60636;-71
2022/10/02 02:53:48;;;;;;;10.90;8.30;;;;;;;10.27;100.00;98565.71;104678;1271;60639;-72
2022/10/02 02:56:17;;;;;;;13.30;9.80;;;;;;;10.25;100.00;98563.89;105239;1271;75381;-72
2022/10/02 02:59:01;;;;;;;14.00;11.20;;;;;;;10.23;100.00;98566.73;105197;1271;69584;-74
2022/10/02 03:01:28;;;;;;;16.00;12.60;;;;;;;10.22;100.00;98568.96;105177;1270;73350;-71
2022/10/02 03:03:55;;;;;;;17.20;15.30;;;;;;;10.21;100.00;98572.73;104886;1274;60465;-72
2022/10/02 03:06:39;;;;;;;16.20;13.20;;;;;;;10.23;100.00;98581.13;105012;1274;60914;-71
2022/10/02 03:09:12;;;;;;;15.20;13.70;;;;;;;10.27;100.00;98586.13;105189;1271;74632;-72
2022/10/02 03:11:52;;;;;;;16.70;13.90;;;;;;;10.30;100.00;98588.23;105253;1271;69347;-72
2022/10/02 03:14:21;;;;;;;13.40;11.60;;;;;;;10.32;100.00;98591.67;105174;1271;73979;-72
2022/10/02 03:17:02;;;;;;;10.30;9.30;;;;;;;10.33;100.00;98594.98;105161;1271;60967;-72
2022/10/02 03:19:41;;;;;;;9.90;8.60;;;;;;;10.33;100.00;98594.25;105208;1271;62326;-72
2022/10/02 03:22:26;;;;;;;8.80;8.00;;;;;;;10.35;100.00;98602.30;105179;1271;73936;-72
2022/10/02 03:25:09;;;;;;;9.50;8.50;;;;;;;10.37;100.00;98604.95;105199;1271;70124;-72
2022/10/02 03:27:44;;;;;;;11.70;10.10;;;;;;;10.38;100.00;98603.88;105161;1271;73769;-72
2022/10/02 03:30:13;;;;;;;12.50;10.90;;;;;;;10.38;100.00;98606.33;105202;1271;60481;-73
2022/10/02 03:32:44;;;;;;;13.50;12.20;;;;;;;10.40;100.00;98612.63;105217;1271;60548;-74
2022/10/02 03:35:13;;;;;;;13.30;11.40;;;;;;;10.41;100.00;98610.00;105374;1271;75603;-72
2022/10/02 03:37:45;;;;;;;13.30;10.90;;;;;;;10.43;100.00;98603.81;105245;1271;69258;-73
2022/10/02 03:40:12;;;;;;;11.80;10.70;;;;;;;10.46;100.00;98609.27;105206;1271;74435;-72
2022/10/02 03:42:39;;;;;;;9.00;8.10;;;;;;;10.48;100.00;98610.39;105177;1271;60498;-72
2022/10/02 03:45:06;;;;;;;9.60;8.70;;;;;;;10.49;100.00;98612.78;105242;1271;60579;-74
2022/10/02 03:47:33;;;;;;;8.90;8.00;;;;;;;10.51;100.00;98617.44;105016;1271;75082;-72
2022/10/02 03:50:00;;;;;;;8.30;7.50;;;;;;;10.53;100.00;98619.30;105194;1271;67833;-71
2022/10/02 03:52:31;;;;;;;9.90;8.90;;;;;;;10.55;100.00;98625.31;105169;1270;60581;-72
2022/10/02 03:55:02;;;;;;;10.30;9.30;;;;;;;10.57;100.00;98627.67;105283;1271;60507;-72
2022/10/02 03:57:32;;;;;;;8.20;7.20;;;;;;;10.59;100.00;98625.80;105293;1271;61548;-70
2022/10/02 04:00:11;;;;;;;7.20;6.50;;;;;;;10.61;100.00;98629.56;105216;1271;74403;-72
2022/10/02 04:03:00;;;;;;;8.40;6.80;;;;;;;10.61;100.00;98627.76;105266;1271;70464;-72
2022/10/02 04:05:49;;;;;;;7.40;6.70;;;;;;;10.61;100.00;98630.98;105280;1271;73008;-73
2022/10/02 04:08:39;;;;;;;6.90;6.10;;;;;;;10.61;100.00;98632.92;105194;1271;60471;-72
2022/10/02 04:11:28;;;;;;;6.90;5.70;;;;;;;10.61;100.00;98637.19;105214;1271;60439;-73
2022/10/02 04:14:16;;;;;;;7.50;5.80;;;;;;;10.61;100.00;98636.10;104985;1271;73888;-73
2022/10/02 04:16:51;;;;;;;6.70;6.10;;;;;;;10.61;100.00;98636.09;105186;1271;70499;-73
2022/10/02 04:19:24;;;;;;;7.10;5.70;;;;;;;10.61;100.00;98641.79;105190;1271;73349;-72
2022/10/02 04:22:20;;;;;;;5.30;4.80;;;;;;;10.61;100.00;98644.13;105194;1271;60916;-74
2022/10/02 04:24:53;;;;;;;5.80;4.80;;;;;;;10.61;100.00;98646.95;105170;1271;60803;-72
2022/10/02 04:27:30;;;;;;;5.20;4.70;;;;;;;10.62;100.00;98649.71;105204;1271;74596;-72
2022/10/02 04:30:03;;;;;;;5.20;4.40;;;;;;;10.62;100.00;98652.79;105216;1271;69392;-72
2022/10/02 04:32:35;;;;;;;5.50;4.40;;;;;;;10.62;100.00;98660.42;105099;1271;73361;-71
2022/10/02 04:35:15;;;;;;;5.60;4.90;;;;;;;10.61;100.00;98664.37;105183;1271;60540;-72
2022/10/02 04:38:09;;;;;;;4.60;4.20;;;;;;;10.61;100.00;98664.86;105215;1271;61145;-72
2022/10/02 04:40:54;;;;;;;5.30;4.90;;;;;;;10.61;100.00;98665.80;105222;1271;74132;-72
2022/10/02 04:43:48;;;;;;;6.50;5.90;;;;;;;10.62;100.00;98675.15;105176;1270;70780;-74
2022/10/02 04:46:47;;;;;;;5.90;5.30;;;;;;;10.62;100.00;98679.36;105204;1271;74165;-72
2022/10/02 04:49:35;;;;;;;5.90;5.00;;;;;;;10.63;100.00;98683.02;104969;1271;60533;-72
2022/10/02 04:53:00;;;;;;;6.00;4.50;;;;;;;10.64;100.00;98686.86;105241;1271;60788;-72
2022/10/02 04:55:39;;;;;;;5.60;4.20;;;;;;;10.66;100.00;98692.23;104246;1283;74612;-74
2022/10/02 04:58:45;;;;;;;7.60;4.80;;;;;;;10.68;100.00;98697.79;104002;1286;67421;-73
2022/10/02 05:01:54;;;;;;;5.80;4.70;;;;;;;10.69;100.00;98701.23;103725;1287;74484;-73
2022/10/02 05:04:28;;;;;;;6.20;4.70;;;;;;;10.72;100.00;98702.63;103726;1287;61295;-73
2022/10/02 05:07:04;;;;;;;6.50;5.20;;;;;;;10.74;100.00;98701.25;103721;1287;61740;-72
2022/10/02 05:09:33;;;;;;;7.50;5.40;;;;;;;10.75;100.00;98702.08;103710;1287;74662;-73
2022/10/02 05:12:02;;;;;;;8.30;5.80;;;;;;;10.78;100.00;98708.30;103696;1287;70457;-74
2022/10/02 05:14:44;;;;;;;5.60;4.90;;;;;;;10.80;100.00;98705.85;103760;1287;74422;-73
2022/10/02 05:17:29;;;;;;;7.30;5.30;;;;;;;10.81;100.00;98707.49;103739;1287;60665;-72
2022/10/02 05:20:21;;;;;;;6.50;5.00;;;;;;;10.83;100.00;98713.79;103807;1287;60850;-73
2022/10/02 05:22:56;;;;;;;7.90;5.20;;;;;;;10.84;100.00;98713.33;103730;1287;75464;-73
2022/10/02 05:25:48;;;;;;;5.70;4.90;;;;;;;10.86;100.00;98715.35;103682;1287;69487;-73
2022/10/02 05:28:28;;;;;;;4.80;4.30;;;;;;;10.91;100.00;98720.31;103816;1287;73939;-72
2022/10/02 05:31:11;;;;;;;8.00;4.60;;;;;;;10.94;100.00;98723.23;103769;1283;61034;-71
2022/10/02 05:34:15;;;;;;;5.50;4.70;;;;;;;10.97;100.00;98733.13;104576;1278;61776;-72
2022/10/02 05:36:55;;;;;;;5.60;4.90;;;;;;;10.99;100.00;98742.48;104843;1276;75537;-73
2022/10/02 05:39:29;;;;;;;6.80;5.00;;;;;;;11.00;100.00;98749.51;104974;1271;69267;-71
2022/10/02 05:42:04;;;;;;;6.00;5.20;;;;;;;11.04;100.00;98747.24;104892;1271;73339;-71
2022/10/02 05:44:42;;;;;;;8.70;6.00;;;;;;;11.08;100.00;98755.01;105146;1271;60793;-71
2022/10/02 05:47:08;;;;;;;7.90;6.10;;;;;;;11.16;100.00;98752.27;105210;1271;62153;-72
2022/10/02 05:49:42;;;;;;;10.40;6.50;;;;;;;11.27;100.00;98758.37;105204;1271;59883;-74
2022/10/02 05:52:19;;;;;;;9.60;6.50;;;;;;;11.34;100.00;98759.45;105202;1271;69451;-71
2022/10/02 05:55:06;;;;;;;10.50;6.10;;;;;;;11.37;100.00;98760.47;104953;1272;71983;-72
2022/10/02 05:57:43;;;;;;;9.60;5.40;;;;;;;11.43;100.00;98759.13;105120;1271;60491;-73
2022/10/02 06:00:26;;;;;;;6.90;5.10;;;;;;;11.49;100.00;98762.23;105196;1271;61589;-74
2022/10/02 06:03:14;;;;;;;6.50;4.40;;;;;;;11.56;100.00;98766.33;105247;1271;74655;-73
2022/10/02 06:05:54;;;;;;;5.60;3.40;;;;;;;11.64;100.00;98766.81;105212;1271;69540;-72
2022/10/02 06:08:48;;;;;;;4.10;3.20;;;;;;;11.69;100.00;98769.67;105236;1271;74455;-74
2022/10/02 06:11:25;;;;;;;4.30;3.00;;;;;;;11.71;100.00;98772.73;105208;1271;60489;-73
2022/10/02 06:13:59;;;;;;;4.10;2.90;;;;;;;11.77;100.00;98771.92;105207;1271;62164;-73
2022/10/02 06:16:35;;;;;;;7.10;4.50;;;;;;;11.83;100.00;98773.95;105165;1271;75665;-73
2022/10/02 06:19:13;;;;;;;4.30;3.20;;;;;;;11.90;100.00;98771.15;105373;1271;69274;-72
2022/10/02 06:22:15;;;;;;;5.40;3.30;;;;;;;11.97;100.00;98769.71;105217;1271;74461;-71
2022/10/02 06:24:49;;;;;;;3.10;2.60;;;;;;;12.05;100.00;98776.55;105237;1271;60507;-73
2022/10/02 06:27:42;;;;;;;4.90;3.00;;;;;;;12.12;100.00;98777.86;105197;1271;60544;-72
2022/10/02 06:30:14;;;;;;;6.70;3.80;;;;;;;12.21;100.00;98779.75;105370;1271;75804;-72
2022/10/02 06:32:43;;;;;;;3.70;3.30;;;;;;;12.30;100.00;98774.67;105252;1271;69184;-74
2022/10/02 06:35:14;;;;;;;3.90;2.30;;;;;;;12.37;100.00;98781.96;105230;1271;74686;-72
2022/10/02 06:38:38;;;;;;;3.50;2.80;;;;;;;12.46;100.00;98782.00;105258;1271;61082;-73
2022/10/02 06:41:25;;;;;;;2.60;2.30;;;;;;;12.63;100.00;98789.40;104485;1280;60536;-72
2022/10/02 06:44:16;;;;;;;4.50;2.40;;;;;;;12.73;100.00;98791.25;104828;1277;74555;-72
2022/10/02 06:46:42;;;;;;;;;;;;;;;12.79;100.00;98793.64;104828;1277;69923;-72
2022/10/02 06:49:12;;;;;;;3.80;2.60;;;;;;;12.83;100.00;98796.52;104770;1277;61894;-72
2022/10/02 06:52:00;;;;;;;9.10;3.10;;;;;;;12.85;100.00;98800.80;104804;1277;61477;-73
2022/10/02 06:54:27;;;;;;;4.50;3.70;;;;;;;12.93;100.00;98801.98;104799;1277;62174;-72
2022/10/02 06:56:56;;;;;;;4.40;3.20;;;;;;;13.10;100.00;98801.35;104783;1276;60738;-73
2022/10/02 06:59:44;;;;;;;3.80;3.10;;;;;;;13.20;100.00;98806.26;104817;1277;69356;-73
2022/10/02 07:02:44;;;;;;;5.80;2.60;;;;;;;13.23;100.00;98807.95;104816;1277;73293;-72
2022/10/02 07:05:29;;;;;;;5.10;2.90;;;;;;;13.31;100.00;98813.20;104825;1277;61348;-73
2022/10/02 07:08:10;;;;;;;5.80;3.20;;;;;;;13.39;100.00;98813.07;104589;1277;61556;-74
2022/10/02 07:10:42;;;;;;;3.40;2.70;;;;;;;13.49;100.00;98814.65;104607;1277;75493;-73
2022/10/02 07:13:14;;;;;;;4.10;2.90;;;;;;;13.53;100.00;98817.86;104945;1271;69470;-71
2022/10/02 07:16:13;;;;;;;3.40;2.40;;;;;;;13.59;100.00;98822.31;105186;1271;74340;-72
2022/10/02 07:19:02;;;;;;;4.00;2.60;;;;;;;13.68;100.00;98819.10;105230;1271;60500;-72
2022/10/02 07:21:58;;;;;;;4.20;2.10;;;;;;;13.74;100.00;98816.11;105217;1271;61037;-72
2022/10/02 07:24:57;;;;;;;3.80;2.50;;;;;;;13.84;100.00;98815.31;104589;1277;75558;-73
2022/10/02 07:28:00;;;;;;;3.80;2.40;;;;;;;13.91;100.00;98818.99;104666;1277;69278;-73
2022/10/02 07:30:36;;;;;;;3.00;2.40;;;;;;;13.96;100.00;98819.48;104574;1277;74266;-73
2022/10/02 07:33:17;;;;;;;2.50;2.10;;;;;;;14.02;100.00;98822.88;104558;1277;61003;-74
2022/10/02 07:36:12;;;;;;;4.80;2.20;;;;;;;14.02;100.00;98822.92;104557;1277;62029;-73
2022/10/02 07:38:54;;;;;;;4.30;2.90;;;;;;;14.02;100.00;98823.09;104574;1278;74423;-72
2022/10/02 07:41:39;;;;;;;3.50;2.30;;;;;;;14.09;100.00;98827.67;104618;1277;70271;-74
2022/10/02 07:44:09;;;;;;;4.60;2.40;;;;;;;14.26;100.00;98829.23;104609;1278;73511;-74
2022/10/02 07:46:48;;;;;;;3.00;2.10;;;;;;;14.40;100.00;98831.27;104559;1278;60591;-73
2022/10/02 07:49:21;;;;;;;5.70;2.60;;;;;;;14.53;100.00;98827.13;104644;1277;61046;-74
2022/10/02 07:52:10;;;;;;;5.00;2.40;;;;;;;14.58;100.00;98824.95;104604;1277;74565;-74
2022/10/02 07:55:08;;;;;;;3.70;2.30;;;;;;;14.51;100.00;98825.92;104569;1277;68754;-71
2022/10/02 07:57:44;;;;;;;2.40;1.90;;;;;;;14.46;100.00;98826.45;104595;1278;74440;-73
2022/10/02 08:00:16;;;;;;;3.80;2.30;;;;;;;14.49;100.00;98830.88;104675;1277;60515;-73
2022/10/02 08:02:56;;;;;;;4.40;2.80;;;;;;;14.55;100.00;98825.77;105117;1271;62249;-73
2022/10/02 08:05:29;;;;;;;3.10;2.30;;;;;;;14.59;100.00;98821.65;105168;1271;75097;-72
2022/10/02 08:08:02;;;;;;;3.70;2.00;;;;;;;14.77;100.00;98818.86;105297;1271;70528;-74
2022/10/02 08:10:36;;;;;;;4.90;2.10;;;;;;;15.02;100.00;98817.20;105217;1271;74203;-74
2022/10/02 08:13:19;;;;;;;5.00;1.80;;;;;;;15.22;100.00;98815.91;105203;1271;60466;-73
2022/10/02 08:15:51;;;;;;;2.90;2.00;;;;;;;15.44;100.00;98810.76;105047;1271;60417;-71
2022/10/02 08:18:29;;;;;;;3.80;2.30;;;;;;;15.60;100.00;98810.08;104998;1270;75438;-71
2022/10/02 08:20:58;;;;;;;2.70;1.60;;;;;;;15.59;100.00;98813.33;105033;1271;69270;-73
2022/10/02 08:23:28;;;;;;;2.90;1.60;;;;;;;15.59;100.00;98811.96;105178;1271;74181;-74
2022/10/02 08:25:59;;;;;;;;;;;;;;;15.47;100.00;98813.95;105020;1274;60429;-73
2022/10/02 08:28:35;;;;;;;6.00;1.60;;;;;;;15.37;100.00;98812.11;105224;1271;60707;-72
2022/10/02 08:31:08;;;;;;;3.30;1.60;;;;;;;15.46;100.00;98811.86;105195;1271;75784;-74
2022/10/02 08:33:35;;;;;;;3.70;1.70;;;;;;;15.67;100.00;98807.96;105214;1271;69276;-74
2022/10/02 08:36:34;;;;;;;4.50;1.50;;;;;;;15.92;100.00;98804.13;105200;1271;74817;-72
2022/10/02 08:39:03;;;;;;;2.00;1.30;;;;;;;15.92;100.00;98801.29;104625;1277;60463;-72
2022/10/02 08:41:55;;;;;;;4.80;1.50;;;;;;;15.84;100.00;98799.31;104575;1277;61858;-73
2022/10/02 08:44:24;;;;;;;2.60;1.50;;;;;;;15.64;100.00;98800.36;104589;1278;74100;-73
2022/10/02 08:47:01;;;;;;;4.70;1.80;;;;;;;15.50;100.00;98798.77;104552;1277;70996;-73
2022/10/02 08:49:37;;;;;;;2.50;1.40;;;;;;;15.36;100.00;98799.70;104591;1277;74551;-74
2022/10/02 08:52:13;;;;;;;5.00;1.70;;;;;;;15.25;100.00;98797.21;104614;1277;60629;-73
2022/10/02 08:54:58;;;;;;;3.50;1.40;;;;;;;15.29;100.00;98798.89;104634;1277;60484;-75
2022/10/02 08:57:42;;;;;;;4.60;1.70;;;;;;;15.32;100.00;98801.95;104629;1277;75561;-75
2022/10/02 09:00:18;;;;;;;4.00;1.50;;;;;;;15.45;100.00;98796.41;104614;1277;68965;-74
2022/10/02 09:03:23;;;;;;;4.50;1.70;;;;;;;15.54;100.00;98801.49;104634;1277;73796;-74
2022/10/02 09:05:59;;;;;;;3.30;1.80;;;;;;;15.75;100.00;98798.38;104588;1278;61355;-75
2022/10/02 09:08:47;;;;;;;2.20;1.50;;;;;;;15.80;100.00;98797.89;104632;1277;60808;-73
2022/10/02 09:11:35;;;;;;;4.40;1.40;;;;;;;15.81;100.00;98789.19;104624;1277;74882;-73
2022/10/02 09:14:37;;;;;;;4.40;1.50;;;;;;;15.94;100.00;98787.27;104617;1277;70384;-75
2022/10/02 09:17:22;;;;;;;3.30;1.80;;;;;;;16.20;100.00;98783.96;105195;1271;72710;-75
2022/10/02 09:20:36;;;;;;;2.90;1.80;;;;;;;16.18;100.00;98786.45;105210;1271;60489;-74
2022/10/02 09:23:21;;;;;;;3.90;1.50;;;;;;;16.22;100.00;98775.13;105219;1271;61026;-74
2022/10/02 09:26:42;;;;;;;3.80;1.90;;;;;;;16.31;100.00;98779.33;105283;1271;74269;-72
2022/10/02 09:29:29;;;;;;;4.90;1.20;;;;;;;16.36;100.00;98778.10;104773;1277;69960;-72
2022/10/02 09:32:02;;;;;;;3.20;1.00;;;;;;;16.42;100.00;98772.14;104461;1277;72905;-73
2022/10/02 09:34:53;;;;;;;3.70;1.20;;;;;;;16.50;100.00;98770.20;104766;1277;61339;-74
2022/10/02 09:37:50;;;;;;;2.80;1.10;;;;;;;16.48;100.00;98770.08;104808;1277;61952;-74
2022/10/02 09:40:52;;;;;;;4.00;1.40;;;;;;;16.44;100.00;98769.16;104820;1277;74347;-73
2022/10/02 09:43:48;;;;;;;1.70;1.10;;;;;;;16.59;100.00;98767.35;104818;1277;69487;-74
2022/10/02 09:46:43;;;;;;;2.90;1.20;;;;;;;16.64;100.00;98764.58;104806;1277;72572;-73
2022/10/02 09:49:33;;;;;;;4.20;1.40;;;;;;;16.64;100.00;98761.13;104820;1278;60455;-72
2022/10/02 09:52:18;;;;;;;4.80;1.20;;;;;;;16.48;100.00;98752.59;104834;1277;61096;-74
2022/10/02 09:54:55;;;;;;;4.00;1.00;;;;;;;16.57;100.00;98746.96;104822;1276;74615;-73
2022/10/02 09:57:40;;;;;;;2.60;1.10;;;;;;;16.69;100.00;98740.04;104535;1277;68611;-73
2022/10/02 10:00:28;;;;;;;3.20;1.70;;;;;;;16.71;100.00;98740.21;104828;1277;73104;-74
2022/10/02 10:03:21;;;;;;;3.50;2.40;;;;;;;16.72;100.00;98730.05;104920;1271;60549;-74
2022/10/02 10:06:39;;;;;;;5.40;1.20;;;;;;;16.83;100.00;98739.64;105222;1271;60820;-74
2022/10/02 10:09:42;;;;;;;2.30;1.00;;;;;;;16.74;100.00;98748.55;104823;1278;74422;-73
2022/10/02 10:12:54;;;;;;;4.50;1.30;;;;;;;16.88;100.00;98743.95;104797;1277;70511;-74
2022/10/02 10:15:52;;;;;;;2.00;0.80;;;;;;;17.03;100.00;98742.73;104265;1284;73463;-74
2022/10/02 10:18:49;;;;;;;1.30;1.00;;;;;;;17.09;100.00;98740.33;104262;1283;60587;-72
2022/10/02 10:21:53;;;;;;;2.30;1.20;;;;;;;17.13;100.00;98743.48;104277;1284;61059;-73
2022/10/02 10:24:42;;;;;;;4.80;1.00;;;;;;;17.30;100.00;98742.38;104282;1284;73806;-73
2022/10/02 10:27:28;;;;;;;2.00;1.10;;;;;;;17.49;100.00;98735.05;104230;1284;69539;-73
2022/10/02 10:30:10;;;;;;;2.90;1.00;;;;;;;17.46;100.00;98737.00;104297;1283;74643;-73
2022/10/02 10:33:08;;;;;;;2.90;0.80;;;;;;;17.34;100.00;98733.36;104208;1284;61904;-71
2022/10/02 10:36:06;;;;;;;3.80;1.10;;;;;;;17.18;100.00;98732.08;104206;1284;61054;-72
2022/10/02 10:38:51;;;;;;;3.90;1.30;;;;;;;17.30;100.00;98727.98;104228;1284;73563;-72
2022/10/02 10:41:36;;;;;;;4.00;1.40;;;;;;;17.59;100.00;98722.21;104203;1283;69446;-75
2022/10/02 10:44:15;;;;;;;4.00;1.10;;;;;;;17.81;100.00;98719.14;104277;1278;73628;-74
2022/10/02 10:47:07;;;;;;;3.50;1.20;;;;;;;17.82;100.00;98714.73;104483;1278;61013;-74
2022/10/02 10:50:01;;;;;;;2.80;1.30;;;;;;;17.76;100.00;98713.48;104730;1277;60913;-73
2022/10/02 10:52:50;;;;;;;2.80;1.00;;;;;;;17.66;100.00;98710.75;104844;1272;75629;-73
2022/10/02 10:55:18;;;;;;;4.20;1.50;;;;;;;17.47;100.00;98716.23;104990;1271;70505;-73
2022/10/02 10:58:13;;;;;;;1.70;1.30;;;;;;;17.23;100.00;98721.00;105204;1271;72218;-73
2022/10/02 11:01:36;;;;;;;2.80;1.50;;;;;;;16.97;100.00;98719.25;105192;1271;60538;-74
2022/10/02 11:04:40;;;;;;;4.70;1.70;;;;;;;16.81;100.00;98713.27;104653;1278;60744;-73
2022/10/02 11:07:24;;;;;;;3.50;1.30;;;;;;;16.80;100.00;98710.89;104486;1278;75622;-73
2022/10/02 11:09:54;;;;;;;3.80;1.20;;;;;;;16.76;100.00;98711.42;104649;1278;70365;-72
2022/10/02 11:12:46;;;;;;;3.90;1.20;;;;;;;16.70;100.00;98717.17;104643;1277;74321;-72
2022/10/02 11:15:25;;;;;;;6.10;1.50;;;;;;;16.62;100.00;98717.56;104624;1277;60470;-72
2022/10/02 11:17:52;;;;;;;2.60;1.10;;;;;;;16.66;100.00;98717.70;104641;1277;60872;-73
2022/10/02 11:20:30;;;;;;;4.00;1.10;;;;;;;16.71;100.00;98719.40;104629;1278;74580;-74
2022/10/02 11:23:08;;;;;;;2.10;1.40;;;;;;;16.76;100.00;98719.47;104664;1278;69361;-72
2022/10/02 11:25:41;;;;;;;3.40;1.40;;;;;;;16.81;100.00;98717.92;104624;1278;73616;-74
2022/10/02 11:28:29;;;;;;;4.20;1.50;;;;;;;16.90;100.00;98714.70;104632;1277;60940;-73
2022/10/02 11:31:11;;;;;;;3.90;2.00;;;;;;;17.05;100.00;98718.41;104676;1277;60788;-72
2022/10/02 11:34:32;;;;;;;4.40;1.50;;;;;;;17.17;100.00;98716.55;104701;1277;75521;-72
2022/10/02 11:37:29;;;;;;;4.00;1.40;;;;;;;17.29;100.00;98714.46;104028;1284;68842;-72
2022/10/02 11:40:14;;;;;;;4.70;1.80;;;;;;;17.32;100.00;98714.09;104189;1277;74410;-72
2022/10/02 11:42:59;;;;;;;3.70;1.80;;;;;;;17.24;100.00;98711.85;104693;1276;60524;-73
2022/10/02 11:45:42;;;;;;;4.20;1.70;;;;;;;17.17;100.00;98714.52;104566;1278;61463;-73
2022/10/02 11:48:28;;;;;;;2.20;1.10;;;;;;;17.22;100.00;98716.97;104655;1277;75503;-73
2022/10/02 11:51:08;;;;;;;4.20;1.40;;;;;;;17.32;100.00;98718.44;104650;1277;70720;-72
2022/10/02 11:54:04;;;;;;;2.60;1.20;;;;;;;17.40;100.00;98714.24;104664;1277;73242;-72
2022/10/02 11:57:00;;;;;;;5.60;1.40;;;;;;;17.46;100.00;98717.23;103882;1287;60571;-73
2022/10/02 11:59:36;;;;;;;4.30;1.50;;;;;;;17.47;100.00;98715.56;103228;1291;61341;-73
2022/10/02 12:02:15;;;;;;;3.00;1.40;;;;;;;17.50;100.00;98707.65;103224;1292;73110;-74
2022/10/02 12:05:04;;;;;;;4.60;1.40;;;;;;;17.58;100.00;98708.70;103289;1291;70191;-72
2022/10/02 12:07:45;;;;;;;5.00;1.40;;;;;;;17.64;100.00;98711.50;103287;1292;73217;-72
2022/10/02 12:10:14;;;;;;;;;;;;;;;17.66;100.00;98703.82;103342;1291;60590;-72
2022/10/02 12:13:15;;;;;;;3.50;1.50;;;;;;;17.70;100.00;98707.31;104001;1286;60585;-72
2022/10/02 12:15:52;;;;;;;3.20;1.30;;;;;;;17.79;100.00;98705.89;103808;1286;73043;-73
2022/10/02 12:18:41;;;;;;;2.20;1.20;;;;;;;17.85;100.00;98707.23;103953;1287;70521;-74
2022/10/02 12:27:56;;;;;;;3.20;1.00;;;;;;;18.04;100.00;98683.92;103266;1292;61175;-74
2022/10/02 12:30:29;;;;;;;4.90;1.30;;;;;;;18.18;100.00;98678.73;103300;1291;74304;-73
2022/10/02 12:33:28;;;;;;;3.20;1.30;;;;;;;18.32;100.00;98675.67;103392;1291;70332;-73